Time;durP1;ratioP1;P1;durP2;ratioP2;P2;SDS_P1;SDS_P2;PMS_P1;PMS_P2;Temp;Humidity;BMP_temperature;BMP_pressure;BME280_temperature;BME280_humidity;BME280_pressure;Samples;Min_cycle;Max_cycle;Signal;HPM_P1;HPM_P2
2022/10/04 00:00:45;;;;;;;16.73;12.02;;;12.00;99.90;;;;;;5075420;28;20383;-56
2022/10/04 00:03:21;;;;;;;12.88;9.57;;;12.00;99.90;;;;;;5073676;28;20056;-45
2022/10/04 00:05:51;;;;;;;17.05;11.40;;;12.00;99.90;;;;;;5055908;28;20044;-48
2022/10/04 00:08:29;;;;;;;17.70;11.18;;;12.00;99.90;;;;;;5074059;28;20055;-45
2022/10/04 00:11:12;;;;;;;14.98;11.05;;;12.00;99.90;;;;;;5068094;28;20185;-45
2022/10/04 00:13:46;;;;;;;14.88;10.10;;;12.00;99.90;;;;;;5071563;28;20056;-45
2022/10/04 00:16:28;;;;;;;17.13;10.73;;;12.00;99.90;;;;;;5075286;28;20048;-48
2022/10/04 00:19:14;;;;;;;20.05;12.38;;;12.00;99.90;;;;;;5070249;28;20055;-56
2022/10/04 00:21:56;;;;;;;15.50;11.00;;;12.00;99.90;;;;;;5069386;28;20048;-56
2022/10/04 00:24:36;;;;;;;15.07;10.73;;;12.00;99.90;;;;;;5039229;28;20044;-55
2022/10/04 00:27:24;;;;;;;19.52;10.60;;;11.90;99.90;;;;;;5072508;28;20091;-46
2022/10/04 00:30:03;;;;;;;16.02;12.10;;;12.00;99.90;;;;;;5067761;28;20515;-47
2022/10/04 00:32:40;;;;;;;17.88;11.38;;;11.90;99.90;;;;;;5074051;28;20139;-45
2022/10/04 00:35:25;;;;;;;14.15;11.27;;;11.90;99.90;;;;;;5071705;28;20055;-44
2022/10/04 00:38:07;;;;;;;13.65;11.25;;;11.90;99.90;;;;;;5074249;28;20102;-44
2022/10/04 00:41:10;;;;;;;15.30;11.63;;;11.90;99.90;;;;;;5073590;28;20045;-45
2022/10/04 00:43:46;;;;;;;17.27;11.73;;;11.90;99.90;;;;;;5055904;28;20186;-47
2022/10/04 00:46:21;;;;;;;16.05;11.45;;;11.90;99.90;;;;;;5073801;28;20618;-44
2022/10/04 00:49:01;;;;;;;16.35;11.98;;;11.90;99.90;;;;;;5077859;28;20040;-47
2022/10/04 00:51:37;;;;;;;16.55;12.10;;;11.90;99.90;;;;;;5073121;28;20037;-46
2022/10/04 00:54:22;;;;;;;17.90;11.15;;;11.90;99.90;;;;;;5075046;28;20855;-44
2022/10/04 00:56:56;;;;;;;18.00;11.75;;;11.90;99.90;;;;;;5076119;28;20040;-44
2022/10/04 00:59:33;;;;;;;16.30;12.57;;;11.90;99.90;;;;;;5077893;28;20040;-46
2022/10/04 01:02:22;;;;;;;15.57;12.95;;;11.90;99.90;;;;;;5072683;28;20048;-45
2022/10/04 01:04:55;;;;;;;18.33;13.13;;;11.90;99.90;;;;;;5076755;28;20138;-44
2022/10/04 01:07:45;;;;;;;16.55;10.95;;;11.90;99.90;;;;;;5073340;28;20044;-43
2022/10/04 01:10:20;;;;;;;19.27;12.63;;;11.90;99.90;;;;;;5067537;28;20060;-45
2022/10/04 01:12:59;;;;;;;14.27;12.27;;;11.90;99.90;;;;;;5079139;28;20052;-45
2022/10/04 01:15:38;;;;;;;20.42;12.20;;;11.90;99.90;;;;;;5073569;28;20047;-44
2022/10/04 01:18:18;;;;;;;15.02;11.52;;;11.80;99.90;;;;;;5078217;28;20044;-45
2022/10/04 01:20:47;;;;;;;18.20;12.05;;;11.80;99.90;;;;;;5077114;28;20048;-57
2022/10/04 01:23:30;;;;;;;20.08;12.63;;;11.80;99.90;;;;;;5073908;28;20070;-56
2022/10/04 01:25:56;;;;;;;17.85;11.27;;;11.80;99.90;;;;;;5076911;28;20507;-55
2022/10/04 01:28:22;;;;;;;17.30;13.25;;;11.80;99.90;;;;;;5076264;28;20117;-56
2022/10/04 01:30:48;;;;;;;16.13;12.18;;;11.80;99.90;;;;;;5070543;28;20051;-56
2022/10/04 01:33:15;;;;;;;16.85;12.02;;;11.80;99.90;;;;;;5078470;28;20628;-57
2022/10/04 01:35:42;;;;;;;18.00;11.60;;;11.80;99.90;;;;;;5072230;28;20052;-57
2022/10/04 01:38:08;;;;;;;16.58;11.95;;;11.80;99.90;;;;;;5074397;28;20135;-57
2022/10/04 01:40:38;;;;;;;16.85;11.70;;;11.80;99.90;;;;;;5075203;28;20056;-56
2022/10/04 01:43:09;;;;;;;16.50;12.40;;;11.80;99.90;;;;;;5069380;28;20676;-56
2022/10/04 01:45:50;;;;;;;21.67;12.90;;;11.80;99.90;;;;;;5059854;28;20560;-55
2022/10/04 01:48:21;;;;;;;18.23;11.90;;;11.80;99.90;;;;;;5068617;28;20058;-56
2022/10/04 01:50:56;;;;;;;16.20;13.00;;;11.80;99.90;;;;;;5076436;28;20058;-56
2022/10/04 01:53:26;;;;;;;17.23;12.90;;;11.80;99.90;;;;;;5080692;28;20048;-56
2022/10/04 01:56:08;;;;;;;19.35;13.73;;;11.80;99.90;;;;;;5091896;28;20043;-57
2022/10/04 01:58:47;;;;;;;18.42;13.55;;;11.80;99.90;;;;;;5061384;28;20379;-55
2022/10/04 02:01:39;;;;;;;20.63;13.82;;;11.90;99.90;;;;;;5070248;28;20110;-56
2022/10/04 02:04:08;;;;;;;17.20;14.00;;;11.90;99.90;;;;;;5075157;28;20122;-55
2022/10/04 02:06:39;;;;;;;18.48;13.30;;;11.90;99.90;;;;;;5074461;28;20093;-57
2022/10/04 02:09:17;;;;;;;18.60;14.65;;;11.90;99.90;;;;;;5076245;28;20048;-55
2022/10/04 02:11:46;;;;;;;23.77;14.88;;;11.90;99.90;;;;;;5075714;28;20507;-55
2022/10/04 02:14:18;;;;;;;20.02;12.95;;;11.90;99.90;;;;;;5071804;28;20838;-55
2022/10/04 02:16:49;;;;;;;20.33;12.40;;;11.80;99.90;;;;;;5091113;28;20404;-57
2022/10/04 02:19:15;;;;;;;19.13;13.82;;;11.90;99.90;;;;;;5056233;28;20055;-55
2022/10/04 02:21:43;;;;;;;16.45;12.48;;;11.90;99.90;;;;;;5074684;28;20048;-44
2022/10/04 02:24:11;;;;;;;22.67;13.15;;;11.80;99.90;;;;;;5069130;28;20164;-47
2022/10/04 02:26:37;;;;;;;19.63;13.32;;;11.80;99.90;;;;;;5075345;28;20059;-44
2022/10/04 02:29:05;;;;;;;19.77;14.23;;;11.80;99.90;;;;;;5074154;28;20067;-44
2022/10/04 02:34:18;;;;;;;20.73;13.40;;;11.70;99.90;;;;;;5075246;28;20043;-55
2022/10/04 02:36:45;;;;;;;18.25;12.70;;;11.60;99.90;;;;;;5070171;28;20052;-56
2022/10/04 02:39:47;;;;;;;16.40;11.90;;;11.50;99.90;;;;;;5056050;28;20052;-55
2022/10/04 02:42:28;;;;;;;18.90;11.90;;;11.50;99.90;;;;;;5065163;28;20036;-54
2022/10/04 02:45:09;;;;;;;20.75;13.68;;;11.30;99.90;;;;;;5054666;28;20040;-54
2022/10/04 02:48:04;;;;;;;18.85;13.43;;;11.30;99.90;;;;;;5076545;28;20498;-44
2022/10/04 02:50:38;;;;;;;23.73;14.50;;;11.20;99.90;;;;;;5072025;28;20055;-46
2022/10/04 02:53:46;;;;;;;20.58;12.70;;;11.10;99.90;;;;;;5056779;28;20052;-46
2022/10/04 02:56:13;;;;;;;21.63;13.25;;;11.10;99.90;;;;;;5068581;28;20698;-44
2022/10/04 02:58:41;;;;;;;19.25;13.43;;;11.00;99.90;;;;;;5051907;28;20052;-44
2022/10/04 03:01:14;;;;;;;19.17;12.77;;;11.00;99.90;;;;;;5051645;28;20044;-46
2022/10/04 03:03:45;;;;;;;22.33;13.45;;;11.00;99.90;;;;;;5058586;28;20048;-46
2022/10/04 03:06:15;;;;;;;16.13;12.30;;;10.90;99.90;;;;;;5074675;28;20449;-46
2022/10/04 03:08:51;;;;;;;19.10;13.02;;;10.90;99.90;;;;;;5069865;28;20086;-48
2022/10/04 03:11:21;;;;;;;19.70;13.48;;;10.80;99.90;;;;;;5074572;28;20043;-48
2022/10/04 03:13:53;;;;;;;19.42;12.80;;;10.80;99.90;;;;;;5068743;28;20435;-46
2022/10/04 03:16:20;;;;;;;18.25;12.98;;;10.80;99.90;;;;;;5075759;28;20055;-47
2022/10/04 03:18:48;;;;;;;19.00;13.13;;;10.70;99.90;;;;;;5073628;28;20048;-45
2022/10/04 03:21:17;;;;;;;18.83;12.80;;;10.60;99.90;;;;;;5076238;28;20195;-45
2022/10/04 03:23:46;;;;;;;20.35;14.32;;;10.60;99.90;;;;;;5070775;28;20407;-48
2022/10/04 03:26:27;;;;;;;15.75;13.57;;;10.60;99.90;;;;;;5070146;28;20812;-47
2022/10/04 03:28:55;;;;;;;;;;;10.60;99.90;;;;;;5043609;28;20055;-46
2022/10/04 03:31:23;;;;;;;15.75;14.00;;;10.60;99.90;;;;;;5060186;28;20617;-56
2022/10/04 03:33:49;;;;;;;20.40;13.38;;;10.60;99.90;;;;;;5055804;28;20052;-57
2022/10/04 03:36:17;;;;;;;19.73;13.77;;;10.50;99.90;;;;;;5074919;28;20048;-56
2022/10/04 03:38:47;;;;;;;18.80;13.65;;;10.50;99.90;;;;;;5075637;28;20129;-56
2022/10/04 03:41:15;;;;;;;19.90;13.93;;;10.50;99.90;;;;;;5056324;28;20051;-56
2022/10/04 03:43:44;;;;;;;19.30;14.27;;;10.50;99.90;;;;;;5074108;28;20048;-56
2022/10/04 03:46:13;;;;;;;20.83;14.60;;;10.40;99.90;;;;;;5073331;28;20715;-56
2022/10/04 03:48:44;;;;;;;18.52;14.48;;;10.40;99.90;;;;;;5072051;28;20091;-55
2022/10/04 03:51:18;;;;;;;20.13;13.63;;;10.30;99.90;;;;;;5073725;28;20055;-49
2022/10/04 03:53:50;;;;;;;17.42;15.48;;;10.30;99.90;;;;;;5070065;28;20059;-55
2022/10/04 03:56:32;;;;;;;18.10;15.27;;;10.30;99.90;;;;;;5073165;28;20058;-55
2022/10/04 03:59:02;;;;;;;24.27;15.52;;;10.20;99.90;;;;;;5084431;28;20058;-55
2022/10/04 04:02:23;;;;;;;20.02;15.02;;;10.20;99.90;;;;;;5069763;28;20055;-55
2022/10/04 04:05:16;;;;;;;20.17;14.00;;;10.10;99.90;;;;;;5049835;28;20589;-55
2022/10/04 04:07:47;;;;;;;19.35;14.82;;;10.10;99.90;;;;;;5074509;28;20084;-56
2022/10/04 04:10:26;;;;;;;19.00;15.13;;;10.00;99.90;;;;;;5070291;28;20105;-45
2022/10/04 04:13:04;;;;;;;24.33;18.33;;;10.00;99.90;;;;;;5043243;28;20048;-56
2022/10/04 04:15:33;;;;;;;19.27;15.02;;;10.00;99.90;;;;;;5072218;28;20510;-45
2022/10/04 04:18:20;;;;;;;20.55;15.95;;;10.00;99.90;;;;;;5073745;28;20079;-55
2022/10/04 04:20:52;;;;;;;19.75;16.23;;;9.90;99.90;;;;;;5075925;28;20896;-56
2022/10/04 04:23:24;;;;;;;26.27;17.58;;;9.90;99.90;;;;;;5076514;28;20089;-56
2022/10/04 04:25:54;;;;;;;24.30;17.35;;;9.90;99.90;;;;;;5077623;28;20613;-55
2022/10/04 04:28:31;;;;;;;19.85;17.38;;;9.80;99.90;;;;;;5079901;28;20444;-56
2022/10/04 04:31:08;;;;;;;21.35;17.88;;;9.80;99.90;;;;;;5078794;28;20518;-56
2022/10/04 04:33:48;;;;;;;19.05;16.92;;;9.80;99.90;;;;;;5041699;28;20300;-56
2022/10/04 04:36:15;;;;;;;21.60;17.77;;;9.70;99.90;;;;;;5079341;28;20040;-54
2022/10/04 04:41:41;;;;;;;22.02;18.45;;;9.70;99.90;;;;;;5042999;28;20051;-55
2022/10/04 04:44:17;;;;;;;27.52;18.20;;;9.70;99.90;;;;;;5078620;28;20040;-55
2022/10/04 04:46:45;;;;;;;24.38;16.60;;;9.60;99.90;;;;;;5067054;28;20049;-55
2022/10/04 04:49:15;;;;;;;23.30;18.02;;;9.60;99.90;;;;;;5067490;28;20144;-56
2022/10/04 04:51:48;;;;;;;26.33;19.30;;;9.60;99.90;;;;;;5081380;28;20626;-56
2022/10/04 04:54:17;;;;;;;25.13;22.30;;;9.60;99.90;;;;;;5037132;28;20864;-55
2022/10/04 04:56:46;;;;;;;27.38;21.67;;;9.70;99.90;;;;;;5074252;28;20123;-56
2022/10/04 04:59:13;;;;;;;25.50;20.92;;;9.70;99.90;;;;;;5071250;28;20051;-45
2022/10/04 05:01:45;;;;;;;26.63;20.48;;;9.70;99.90;;;;;;5060483;28;20044;-43
2022/10/04 05:04:11;;;;;;;30.40;22.95;;;9.70;99.90;;;;;;5077740;28;20040;-44
2022/10/04 05:06:40;;;;;;;29.25;23.55;;;9.70;99.90;;;;;;5075609;28;20055;-47
2022/10/04 05:09:22;;;;;;;27.10;22.50;;;9.70;99.90;;;;;;5058434;28;20055;-45
2022/10/04 05:11:52;;;;;;;29.05;20.63;;;9.70;99.90;;;;;;5058247;28;20127;-48
2022/10/04 05:14:20;;;;;;;27.45;21.45;;;9.70;99.90;;;;;;5092646;28;20068;-54
2022/10/04 05:16:54;;;;;;;30.35;23.15;;;9.80;99.90;;;;;;5057660;28;20866;-55
2022/10/04 05:19:29;;;;;;;32.17;23.58;;;9.70;99.90;;;;;;5078891;28;20040;-54
2022/10/04 05:21:58;;;;;;;29.17;24.15;;;9.80;99.90;;;;;;5075107;28;20439;-53
2022/10/04 05:24:26;;;;;;;26.80;23.48;;;9.80;99.90;;;;;;5064631;28;20127;-54
2022/10/04 05:27:03;;;;;;;32.03;25.35;;;9.70;99.90;;;;;;5077490;28;20036;-44
2022/10/04 05:29:45;;;;;;;32.13;25.20;;;9.70;99.90;;;;;;5069479;28;20223;-54
2022/10/04 05:32:29;;;;;;;;;;;9.70;99.90;;;;;;5078254;28;20894;-44
2022/10/04 05:34:58;;;;;;;27.92;23.30;;;9.80;99.90;;;;;;5072551;28;19932;-43
2022/10/04 05:37:24;;;;;;;37.83;26.35;;;9.80;99.90;;;;;;5076732;28;20076;-54
2022/10/04 05:40:09;;;;;;;28.42;24.10;;;9.70;99.90;;;;;;5080027;28;20119;-44
2022/10/04 05:42:39;;;;;;;28.05;24.52;;;9.60;99.90;;;;;;5074858;28;20044;-44
2022/10/04 05:45:23;;;;;;;28.58;23.77;;;9.60;99.90;;;;;;5072437;28;20055;-46
2022/10/04 05:47:52;;;;;;;31.02;24.60;;;9.60;99.90;;;;;;5078492;28;20055;-44
2022/10/04 05:50:34;;;;;;;30.05;26.80;;;9.60;99.90;;;;;;5077643;28;20123;-45
2022/10/04 05:53:25;;;;;;;29.92;24.88;;;9.60;99.90;;;;;;5077247;28;20606;-43
2022/10/04 05:56:11;;;;;;;34.92;26.05;;;9.60;99.90;;;;;;5077173;28;20048;-45
2022/10/04 05:59:00;;;;;;;31.08;26.75;;;9.60;99.90;;;;;;5081841;28;20408;-48
2022/10/04 06:02:14;;;;;;;35.88;28.23;;;9.60;99.90;;;;;;5070805;28;20044;-45
2022/10/04 06:05:19;;;;;;;30.65;26.60;;;9.60;99.90;;;;;;5079488;28;20052;-43
2022/10/04 06:07:58;;;;;;;32.72;28.33;;;9.70;99.90;;;;;;5034253;28;20084;-53
2022/10/04 06:10:36;;;;;;;36.05;29.40;;;9.70;99.90;;;;;;5070572;28;20043;-45
2022/10/04 06:13:12;;;;;;;34.80;29.60;;;9.80;99.90;;;;;;5078662;28;20044;-47
2022/10/04 06:15:50;;;;;;;34.17;28.70;;;9.80;99.90;;;;;;5075030;28;20094;-48
2022/10/04 06:18:43;;;;;;;34.70;27.00;;;9.90;99.90;;;;;;5067749;28;20753;-45
2022/10/04 06:21:17;;;;;;;36.30;28.88;;;9.90;99.90;;;;;;5078241;28;20043;-44
2022/10/04 06:23:58;;;;;;;30.48;27.17;;;9.90;99.90;;;;;;5078558;28;20090;-44
2022/10/04 06:26:34;;;;;;;31.20;27.05;;;9.90;99.90;;;;;;5074109;28;20844;-43
2022/10/04 06:29:10;;;;;;;32.38;28.92;;;10.00;99.90;;;;;;5057079;28;20136;-44
2022/10/04 06:31:49;;;;;;;31.10;27.00;;;10.00;99.90;;;;;;5069075;28;20047;-44
2022/10/04 06:34:50;;;;;;;28.02;25.20;;;10.00;99.90;;;;;;5081806;28;20102;-46
2022/10/04 06:37:35;;;;;;;31.40;27.75;;;10.10;99.90;;;;;;5073922;28;20383;-45
2022/10/04 06:40:35;;;;;;;32.55;27.52;;;10.10;99.90;;;;;;5072864;28;20048;-45
2022/10/04 06:43:19;;;;;;;30.10;26.92;;;10.10;99.90;;;;;;5057577;28;20097;-45
2022/10/04 06:46:03;;;;;;;30.63;27.38;;;10.20;99.90;;;;;;5070967;28;20052;-46
2022/10/04 06:48:35;;;;;;;30.30;25.77;;;10.20;99.90;;;;;;5093529;28;20059;-43
2022/10/04 06:51:19;;;;;;;29.23;26.20;;;10.20;99.90;;;;;;5045685;28;20756;-44
2022/10/04 06:54:34;;;;;;;35.22;27.20;;;10.20;99.90;;;;;;5069803;28;20048;-44
2022/10/04 06:57:30;;;;;;;36.95;29.05;;;10.30;99.90;;;;;;5062420;28;20068;-45
2022/10/04 07:00:22;;;;;;;30.65;27.65;;;10.40;99.90;;;;;;5068191;28;20619;-47
2022/10/04 07:02:57;;;;;;;28.85;25.83;;;10.60;99.90;;;;;;5071625;28;20055;-53
2022/10/04 07:05:29;;;;;;;28.33;25.63;;;10.90;99.90;;;;;;5067637;28;20425;-52
2022/10/04 07:08:30;;;;;;;;;;;11.30;99.90;;;;;;5069417;28;20800;-52
2022/10/04 07:11:24;;;;;;;22.70;19.75;;;11.80;99.90;;;;;;5061067;28;19959;-52
2022/10/04 07:13:57;;;;;;;20.55;17.95;;;12.50;99.90;;;;;;5064666;28;20053;-54
2022/10/04 07:16:47;;;;;;;17.52;15.73;;;12.80;99.90;;;;;;5066092;28;20072;-55
2022/10/04 07:19:19;;;;;;;20.80;16.27;;;13.00;99.90;;;;;;5068951;28;20726;-55
2022/10/04 07:21:56;;;;;;;22.02;15.43;;;13.10;99.90;;;;;;5047807;28;20041;-53
2022/10/04 07:24:38;;;;;;;19.90;15.13;;;13.10;99.90;;;;;;5072297;28;20044;-54
2022/10/04 07:27:12;;;;;;;18.35;14.57;;;13.10;99.90;;;;;;5075270;28;20050;-45
2022/10/04 07:29:40;;;;;;;18.27;15.07;;;13.40;99.90;;;;;;5073693;28;20050;-45
2022/10/04 07:32:42;;;;;;;15.95;14.32;;;13.70;99.90;;;;;;5072524;28;20056;-44
2022/10/04 07:35:08;;;;;;;21.38;17.75;;;13.70;99.90;;;;;;5064101;28;20051;-43
2022/10/04 07:38:13;;;;;;;17.30;15.00;;;14.00;99.90;;;;;;5069459;28;20040;-43
2022/10/04 07:41:07;;;;;;;15.45;13.38;;;14.10;99.90;;;;;;5032564;28;20938;-43
2022/10/04 07:43:48;;;;;;;19.58;14.80;;;14.00;99.90;;;;;;5053038;28;20047;-42
2022/10/04 07:46:37;;;;;;;16.30;14.00;;;13.80;99.90;;;;;;5070889;28;20453;-43
2022/10/04 07:49:03;;;;;;;17.50;15.50;;;13.80;99.90;;;;;;5057893;28;20415;-43
2022/10/04 07:51:40;;;;;;;21.58;15.95;;;14.10;99.90;;;;;;5063394;28;20059;-44
2022/10/04 07:54:17;;;;;;;16.88;13.27;;;14.90;99.90;;;;;;5066109;28;20864;-42
2022/10/04 07:56:51;;;;;;;13.07;11.60;;;15.80;99.90;;;;;;5074037;28;20056;-42
2022/10/04 07:59:48;;;;;;;13.52;12.05;;;16.80;99.90;;;;;;5055275;28;20051;-43
2022/10/04 08:02:22;;;;;;;17.05;11.15;;;17.30;99.90;;;;;;5076626;28;20052;-45
2022/10/04 08:05:14;;;;;;;13.48;11.85;;;17.80;99.90;;;;;;5075658;28;20119;-56
2022/10/04 08:07:48;;;;;;;15.02;12.68;;;18.10;99.90;;;;;;5073820;28;20055;-57
2022/10/04 08:10:22;;;;;;;12.57;10.50;;;18.20;99.90;;;;;;5078235;28;20048;-57
2022/10/04 08:13:17;;;;;;;14.52;9.52;;;18.10;99.90;;;;;;5050772;28;20542;-57
2022/10/04 08:15:43;;;;;;;16.23;10.70;;;18.10;99.90;;;;;;5061761;28;20105;-57
2022/10/04 08:18:38;;;;;;;13.82;10.05;;;18.30;99.90;;;;;;5072682;28;20149;-57
2022/10/04 08:21:07;;;;;;;14.48;10.20;;;18.70;99.90;;;;;;5052780;28;20088;-57
2022/10/04 08:23:46;;;;;;;12.93;10.13;;;18.70;99.90;;;;;;5077019;28;20052;-58
2022/10/04 08:26:50;;;;;;;14.05;10.18;;;18.30;99.90;;;;;;5058630;28;20842;-58
2022/10/04 08:29:43;;;;;;;14.60;9.80;;;17.50;99.90;;;;;;5074046;28;20124;-57
2022/10/04 08:32:47;;;;;;;15.52;9.80;;;16.90;99.90;;;;;;5056827;28;20075;-57
2022/10/04 08:35:32;;;;;;;15.10;12.77;;;16.40;99.90;;;;;;5056166;28;20051;-57
2022/10/04 08:38:20;;;;;;;11.68;9.73;;;16.00;99.90;;;;;;5076924;28;20448;-58
2022/10/04 08:40:49;;;;;;;15.27;11.20;;;16.50;99.90;;;;;;5071371;28;20081;-57
2022/10/04 08:43:55;;;;;;;12.38;9.48;;;17.30;99.90;;;;;;5077322;28;20063;-57
2022/10/04 08:47:05;;;;;;;10.77;8.25;;;18.40;99.90;;;;;;5074361;28;20063;-58
2022/10/04 08:49:40;;;;;;;11.27;9.07;;;19.40;99.90;;;;;;5056282;28;20048;-57
2022/10/04 08:53:01;;;;;;;9.55;7.80;;;20.00;99.90;;;;;;5069119;28;20066;-57
2022/10/04 08:55:54;;;;;;;13.07;7.32;;;20.10;99.90;;;;;;5050264;28;20582;-58
2022/10/04 08:58:40;;;;;;;12.70;8.10;;;20.60;99.90;;;;;;5074388;28;20495;-57
2022/10/04 09:01:21;;;;;;;12.45;7.57;;;20.60;99.90;;;;;;5068402;28;20542;-57
2022/10/04 09:04:21;;;;;;;11.50;6.65;;;20.90;99.90;;;;;;5054384;28;20048;-48
2022/10/04 09:07:15;;;;;;;9.25;6.45;;;20.90;99.90;;;;;;5068441;28;20044;-48
2022/10/04 09:09:50;;;;;;;9.88;6.60;;;20.30;99.90;;;;;;5064771;28;20135;-48
2022/10/04 09:12:35;;;;;;;12.07;7.13;;;20.70;99.90;;;;;;5071140;28;20119;-43
2022/10/04 09:15:20;;;;;;;9.50;7.50;;;20.70;99.90;;;;;;5070366;28;20058;-58
2022/10/04 09:17:55;;;;;;;12.57;7.05;;;20.80;99.90;;;;;;5070993;28;20052;-45
2022/10/04 09:20:40;;;;;;;10.90;6.45;;;20.80;99.90;;;;;;5071629;28;20514;-45
2022/10/04 09:23:28;;;;;;;10.35;7.45;;;21.10;99.90;;;;;;5068793;28;20048;-45
2022/10/04 09:26:06;;;;;;;10.68;6.60;;;21.00;99.90;;;;;;5072180;28;20045;-56
2022/10/04 09:28:38;;;;;;;10.80;7.60;;;20.90;99.90;;;;;;5064634;28;20049;-56
2022/10/04 09:31:28;;;;;;;12.60;7.43;;;20.40;99.90;;;;;;5073691;28;20101;-56
2022/10/04 09:34:00;;;;;;;11.48;8.38;;;20.60;99.90;;;;;;5067008;28;20052;-41
2022/10/04 09:36:51;;;;;;;9.95;7.00;;;20.50;99.90;;;;;;5076293;28;20082;-43
2022/10/04 09:39:35;;;;;;;9.82;7.18;;;20.40;99.90;;;;;;5075129;28;20384;-43
2022/10/04 09:42:02;;;;;;;11.02;7.65;;;20.50;99.90;;;;;;5076560;28;20134;-44
2022/10/04 09:44:46;;;;;;;10.10;7.65;;;20.50;99.90;;;;;;5070406;28;20044;-45
2022/10/04 09:47:44;;;;;;;17.13;7.75;;;21.00;99.90;;;;;;5068959;28;20101;-43
2022/10/04 09:50:36;;;;;;;11.07;7.22;;;21.50;99.90;;;;;;5043573;28;20380;-44
2022/10/04 09:53:15;;;;;;;10.98;7.18;;;21.60;99.90;;;;;;5071629;28;20151;-44
2022/10/04 09:55:59;;;;;;;11.05;6.93;;;21.70;99.90;;;;;;5064762;28;20094;-57
2022/10/04 09:58:32;;;;;;;11.88;6.75;;;22.40;99.90;;;;;;5069678;28;20040;-44
2022/10/04 10:01:21;;;;;;;12.05;6.82;;;22.50;99.90;;;;;;5051085;28;20049;-43
2022/10/04 10:03:57;;;;;;;10.88;6.82;;;22.70;99.90;;;;;;5068108;28;20045;-57
2022/10/04 10:06:43;;;;;;;12.35;8.18;;;23.00;99.90;;;;;;5070403;28;20078;-57
2022/10/04 10:16:02;;;;;;;9.40;6.05;;;23.70;97.60;;;;;;5073214;28;20048;-43
2022/10/04 10:18:38;;;;;;;9.57;6.55;;;24.30;98.00;;;;;;5072217;28;20495;-49
2022/10/04 10:21:25;;;;;;;8.07;6.03;;;24.20;96.60;;;;;;5072403;28;20063;-48
2022/10/04 10:24:10;;;;;;;8.73;6.82;;;23.80;96.00;;;;;;5048331;28;20079;-48
2022/10/04 10:26:55;;;;;;;9.32;6.90;;;23.80;93.30;;;;;;5045982;28;20089;-45
2022/10/04 10:29:38;;;;;;;7.97;6.93;;;23.50;93.20;;;;;;5064202;28;20689;-44
2022/10/04 10:32:31;;;;;;;8.70;6.68;;;23.80;92.90;;;;;;5067861;28;20048;-45
2022/10/04 10:35:31;;;;;;;9.65;6.70;;;24.60;94.90;;;;;;5067070;28;20055;-44
2022/10/04 10:38:15;;;;;;;10.25;7.40;;;25.30;92.20;;;;;;5066297;28;20044;-45
2022/10/04 10:41:02;;;;;;;9.85;6.15;;;25.50;87.20;;;;;;5090980;28;20094;-43
2022/10/04 10:43:45;;;;;;;9.13;5.90;;;25.70;85.60;;;;;;5076585;28;20047;-44
2022/10/04 10:47:00;;;;;;;10.27;6.32;;;25.30;86.10;;;;;;5068277;28;20605;-45
2022/10/04 10:49:45;;;;;;;11.48;5.40;;;25.10;85.00;;;;;;5054780;28;20324;-47
2022/10/04 10:52:17;;;;;;;8.63;5.25;;;25.00;79.10;;;;;;5072163;28;20052;-57
2022/10/04 10:54:46;;;;;;;11.18;5.75;;;24.40;80.60;;;;;;5047448;28;20056;-58
2022/10/04 10:57:21;;;;;;;7.93;5.38;;;24.00;79.60;;;;;;5071712;28;20048;-58
2022/10/04 11:00:18;;;;;;;7.75;5.03;;;24.00;80.60;;;;;;5065058;28;20040;-58
2022/10/04 11:03:00;;;;;;;10.80;5.13;;;23.70;79.80;;;;;;5066488;28;20047;-58
2022/10/04 11:05:44;;;;;;;;;;;23.20;82.60;;;;;;5073300;28;20040;-58
2022/10/04 11:09:12;;;;;;;9.20;5.47;;;23.20;86.50;;;;;;5052985;28;19920;-58
2022/10/04 11:12:43;;;;;;;8.90;4.80;;;23.10;81.20;;;;;;5001406;28;20091;-58
2022/10/04 11:15:40;;;;;;;9.80;5.15;;;23.20;79.70;;;;;;5035141;28;20048;-57
2022/10/04 11:18:31;;;;;;;8.48;4.88;;;23.50;83.50;;;;;;5035495;28;20118;-58
2022/10/04 11:21:24;;;;;;;10.15;5.20;;;23.50;80.20;;;;;;5070592;28;20044;-58
2022/10/04 11:24:29;;;;;;;9.23;5.70;;;23.40;80.60;;;;;;5073223;28;20576;-44
2022/10/04 11:27:03;;;;;;;9.60;5.22;;;23.70;83.60;;;;;;5064024;28;20264;-43
2022/10/04 11:29:57;;;;;;;9.35;5.13;;;23.20;78.80;;;;;;5064068;28;20052;-45
2022/10/04 11:32:58;;;;;;;7.07;5.45;;;23.30;80.80;;;;;;5066958;28;20570;-44
2022/10/04 11:35:44;;;;;;;8.50;5.10;;;23.70;83.10;;;;;;5047714;28;20102;-45
2022/10/04 11:38:52;;;;;;;9.10;5.88;;;24.00;80.50;;;;;;5068810;28;20097;-46
2022/10/04 11:41:35;;;;;;;9.43;5.35;;;24.60;78.60;;;;;;5038264;28;20578;-44
2022/10/04 11:44:16;;;;;;;11.57;6.03;;;24.20;76.50;;;;;;5034404;28;20052;-45
2022/10/04 11:46:59;;;;;;;8.13;5.55;;;24.20;78.90;;;;;;5059449;28;20052;-58
2022/10/04 11:50:01;;;;;;;11.90;6.43;;;24.90;78.90;;;;;;5073163;28;20056;-58
2022/10/04 11:53:05;;;;;;;8.80;6.13;;;25.50;76.10;;;;;;5064888;28;20045;-45
2022/10/04 11:56:04;;;;;;;7.70;5.28;;;25.80;74.50;;;;;;5066850;28;20051;-47
2022/10/04 11:58:57;;;;;;;9.48;6.10;;;25.80;73.80;;;;;;5071011;28;20478;-45
2022/10/04 12:01:32;;;;;;;8.95;5.88;;;24.80;73.50;;;;;;5072928;28;20051;-57
2022/10/04 12:04:27;;;;;;;9.70;6.30;;;24.40;74.60;;;;;;5068875;28;20097;-57
2022/10/04 12:07:44;;;;;;;11.48;6.38;;;24.60;76.90;;;;;;5072555;28;20072;-58
2022/10/04 12:10:23;;;;;;;11.25;6.38;;;25.00;73.00;;;;;;5065478;28;20083;-59
2022/10/04 12:13:00;;;;;;;16.02;11.85;;;25.30;75.20;;;;;;5069241;28;20058;-59
2022/10/04 12:15:56;;;;;;;8.05;6.78;;;25.90;74.30;;;;;;5069466;28;20049;-59
2022/10/04 12:18:34;;;;;;;11.13;6.50;;;24.80;72.90;;;;;;5064154;28;20143;-58
2022/10/04 12:21:22;;;;;;;12.30;8.65;;;24.50;75.40;;;;;;5067593;28;20083;-58
2022/10/04 12:24:07;;;;;;;11.50;6.00;;;24.30;72.50;;;;;;5064046;28;20057;-46
2022/10/04 12:26:54;;;;;;;8.98;6.40;;;25.00;73.40;;;;;;5064816;28;20059;-59
2022/10/04 12:30:08;;;;;;;10.15;5.70;;;24.80;75.20;;;;;;5070767;28;20054;-58
2022/10/04 12:32:41;;;;;;;9.00;5.13;;;25.50;71.40;;;;;;5063370;28;20063;-44
2022/10/04 12:35:13;;;;;;;9.90;5.32;;;25.70;71.00;;;;;;5070100;28;20073;-57
2022/10/04 12:37:55;;;;;;;11.13;5.97;;;25.60;71.40;;;;;;5072620;28;20055;-58
2022/10/04 12:40:32;;;;;;;7.50;4.90;;;26.10;71.00;;;;;;5069790;28;20131;-44
2022/10/04 12:43:20;;;;;;;8.98;6.00;;;26.40;69.40;;;;;;5071416;28;20052;-59
2022/10/04 12:46:16;;;;;;;10.10;6.32;;;25.70;67.70;;;;;;5071776;28;20117;-57
2022/10/04 12:49:14;;;;;;;10.82;7.45;;;24.90;68.50;;;;;;5043070;28;20056;-47
2022/10/04 12:52:06;;;;;;;8.70;6.28;;;25.40;71.40;;;;;;5078947;28;20048;-46
2022/10/04 12:54:36;;;;;;;9.05;6.07;;;25.20;70.10;;;;;;5071647;28;20048;-47
2022/10/04 12:57:11;;;;;;;11.68;7.30;;;26.30;70.70;;;;;;5071217;28;20420;-45
2022/10/04 12:59:53;;;;;;;8.55;5.88;;;25.80;67.90;;;;;;5073998;28;20052;-43
2022/10/04 13:02:35;;;;;;;9.90;6.05;;;26.00;68.60;;;;;;5057266;28;20054;-57
2022/10/04 13:05:24;;;;;;;8.18;6.05;;;26.00;67.70;;;;;;5071924;28;20056;-57
2022/10/04 13:08:02;;;;;;;11.88;6.50;;;25.70;68.40;;;;;;5076241;28;20045;-43
2022/10/04 13:10:46;;;;;;;10.32;6.43;;;25.10;68.90;;;;;;5068482;28;20040;-44
2022/10/04 13:13:22;;;;;;;12.57;6.85;;;25.50;70.60;;;;;;5072133;28;20563;-46
2022/10/04 13:15:54;;;;;;;12.05;6.50;;;25.10;69.70;;;;;;5073447;28;20047;-58
2022/10/04 13:18:23;;;;;;;10.30;6.30;;;25.00;71.10;;;;;;5069400;28;20052;-42
2022/10/04 13:21:00;;;;;;;13.05;6.55;;;24.70;72.30;;;;;;5069480;28;20135;-58
2022/10/04 13:23:51;;;;;;;9.57;6.68;;;25.50;72.90;;;;;;5066335;28;20080;-58
2022/10/04 13:26:37;;;;;;;10.47;6.40;;;25.70;69.60;;;;;;5070835;28;20078;-46
2022/10/04 13:29:19;;;;;;;10.60;6.90;;;26.10;68.10;;;;;;5070744;28;20048;-44
2022/10/04 13:31:52;;;;;;;10.45;5.82;;;25.30;69.10;;;;;;5049936;28;20668;-58
2022/10/04 13:34:44;;;;;;;9.70;6.03;;;25.50;70.10;;;;;;5056830;28;20054;-57
2022/10/04 13:37:53;;;;;;;11.27;7.43;;;24.80;70.00;;;;;;5036182;28;20044;-57
2022/10/04 13:40:31;;;;;;;9.13;5.97;;;23.70;71.70;;;;;;5068334;28;20097;-57
2022/10/04 13:43:21;;;;;;;11.65;7.03;;;23.20;75.50;;;;;;5073068;28;20066;-57
2022/10/04 13:46:11;;;;;;;9.50;6.15;;;23.20;78.10;;;;;;5068572;28;20579;-58
2022/10/04 13:48:49;;;;;;;9.90;6.27;;;23.50;79.10;;;;;;5059841;28;20079;-45
2022/10/04 13:51:30;;;;;;;9.05;6.00;;;23.80;76.20;;;;;;5066732;28;20340;-59
2022/10/04 13:57:52;;;;;;;8.30;5.72;;;24.60;73.00;;;;;;5069427;28;20055;-45
2022/10/04 14:00:28;;;;;;;11.25;6.97;;;25.20;73.20;;;;;;5070376;28;20044;-58
2022/10/04 14:03:31;;;;;;;11.80;6.03;;;25.10;71.70;;;;;;5064533;28;20048;-58